SXN39 EGTR-EGKB
Flight info
| Callsign | SXN39 |
|---|---|
| Flight time | 0h 14m |
| Altitude | 1500 |
| Route | BRENT RESERVOIR DCT |
| Aircraft | A139/L-VGD/C |
Departure
| Time | 2026-04-30 18:56 |
|---|---|
| Airport | Elstree Airfield (EGTR) |
Arrival
| Time | 2026-04-30 19:10 |
|---|---|
| Airport | London Biggin Hill Airport (EGKB) |
| Time | Latitude | Longitude | Altitude | Speed | Heading |
|---|---|---|---|---|---|
| 2026-04-30 18:51 | 51.65688 | -0.32605 | 310 ft | 0 kts | 261° |
| 2026-04-30 18:55 | 51.65690 | -0.32613 | 319 ft | 1 kts | 225° |
| 2026-04-30 18:55 | 51.65646 | -0.32558 | 341 ft | 2 kts | 78° |
| 2026-04-30 18:55 | 51.65647 | -0.32547 | 370 ft | 18 kts | 78° |
| 2026-04-30 18:56 | 51.66266 | -0.31832 | 835 ft | 97 kts | 47° |
| 2026-04-30 18:56 | 51.66655 | -0.30916 | 1111 ft | 104 kts | 65° |
| 2026-04-30 18:56 | 51.67019 | -0.29890 | 1433 ft | 109 kts | 64° |
| 2026-04-30 18:57 | 51.67564 | -0.27514 | 1557 ft | 118 kts | 81° |
| 2026-04-30 18:57 | 51.67090 | -0.26066 | 1590 ft | 117 kts | 133° |
| 2026-04-30 18:57 | 51.66447 | -0.25259 | 1579 ft | 121 kts | 139° |
| 2026-04-30 18:58 | 51.65124 | -0.24306 | 1566 ft | 126 kts | 149° |
| 2026-04-30 18:58 | 51.64321 | -0.23794 | 1578 ft | 125 kts | 149° |
| 2026-04-30 18:58 | 51.63239 | -0.23101 | 1564 ft | 126 kts | 149° |
| 2026-04-30 18:59 | 51.61778 | -0.22689 | 1560 ft | 142 kts | 184° |
| 2026-04-30 19:00 | 51.58631 | -0.24028 | 1548 ft | 135 kts | 171° |
| 2026-04-30 19:00 | 51.58017 | -0.24001 | 1556 ft | 133 kts | 166° |
| 2026-04-30 19:00 | 51.56170 | -0.23842 | 1569 ft | 132 kts | 166° |
| 2026-04-30 19:01 | 51.54340 | -0.23666 | 1570 ft | 132 kts | 165° |
| 2026-04-30 19:01 | 51.53421 | -0.23572 | 1569 ft | 132 kts | 165° |
| 2026-04-30 19:02 | 51.51687 | -0.22919 | 1562 ft | 128 kts | 155° |
| 2026-04-30 19:02 | 51.50034 | -0.21907 | 1562 ft | 126 kts | 146° |
| 2026-04-30 19:03 | 51.48184 | -0.20487 | 1560 ft | 127 kts | 146° |
| 2026-04-30 19:03 | 51.46861 | -0.19467 | 1565 ft | 127 kts | 146° |
| 2026-04-30 19:04 | 51.45272 | -0.18236 | 1558 ft | 127 kts | 146° |
| 2026-04-30 19:04 | 51.43683 | -0.17006 | 1570 ft | 126 kts | 146° |
| 2026-04-30 19:05 | 51.42368 | -0.15265 | 1563 ft | 122 kts | 129° |
| 2026-04-30 19:05 | 51.41155 | -0.13347 | 1720 ft | 122 kts | 131° |
| 2026-04-30 19:06 | 51.39957 | -0.11457 | 1774 ft | 121 kts | 129° |
| 2026-04-30 19:06 | 51.39447 | -0.10390 | 1781 ft | 121 kts | 122° |
| 2026-04-30 19:06 | 51.38493 | -0.08193 | 1810 ft | 120 kts | 121° |
| 2026-04-30 19:07 | 51.37542 | -0.05983 | 1802 ft | 121 kts | 121° |
| 2026-04-30 19:07 | 51.37064 | -0.04871 | 1808 ft | 121 kts | 120° |
| 2026-04-30 19:08 | 51.36118 | -0.02170 | 1733 ft | 117 kts | 112° |
| 2026-04-30 19:08 | 51.35405 | 0.00098 | 1671 ft | 115 kts | 126° |
| 2026-04-30 19:08 | 51.34988 | 0.00657 | 1671 ft | 117 kts | 142° |
| 2026-04-30 19:09 | 51.33437 | 0.00634 | 1737 ft | 108 kts | 185° |
| 2026-04-30 19:09 | 51.32769 | 0.00330 | 1687 ft | 89 kts | 174° |
| 2026-04-30 19:09 | 51.32291 | 0.00953 | 1501 ft | 79 kts | 104° |
| 2026-04-30 19:10 | 51.32419 | 0.02746 | 1006 ft | 84 kts | 27° |
| 2026-04-30 19:10 | 51.33032 | 0.03118 | 590 ft | 28 kts | 324° |
| 2026-04-30 19:13 | 51.33086 | 0.02967 | 569 ft | 0 kts | 317° |
| 2026-04-30 19:13 | 51.33118 | 0.02939 | 567 ft | 0 kts | 200° |